Eganville, Canada
Current Conditions -  °F | °C
As of 3:32 PM on Saturday 25 Oct 2014 (Local Time) from CYWA Reporting Station
Broken Clouds Broken Clouds  
Wind Chill: 57°   Ceiling: 2000
Heat Index: 57°   Visibility: 9mi
Dew Point: 48°   Wind: 10mph
Humidity: 72%   Direction: 260°W
Pressure: 29.44"   Gusts: NA
Location:  45.53°N, 77.1°W
Report Text: CYWA 251932Z AUTO 26009KT 230V300 9SM BKN020 BKN047 BKN059 14/09 A2944
Loading
Personal Weather Stations






























Interactive Weather Map
Tropical Storm Tracking
New forecast layout! Learn more

10-Day Weather Forecast

Advertisements
Track Severe Weather on mobile